createdAt,value
2018-11-26T13:57:27.095Z,7.40
2018-11-26T14:00:02.177Z,7.50
2018-11-26T14:02:35.829Z,7.40
2018-11-26T14:05:14.189Z,7.40
2018-11-26T14:07:51.058Z,7.40
2018-11-26T14:10:28.504Z,7.40
2018-11-26T14:13:21.341Z,7.40
2018-11-26T14:15:55.361Z,7.40
2018-11-26T14:18:33.919Z,7.30
2018-11-26T14:21:07.727Z,7.30
2018-11-26T14:23:42.501Z,7.30
2018-11-26T14:26:22.501Z,7.30
2018-11-26T14:28:59.094Z,7.30
2018-11-26T14:31:39.000Z,7.30
2018-11-26T14:34:15.854Z,7.20
2018-11-26T14:36:52.384Z,7.30
2018-11-26T14:39:30.337Z,7.20
2018-11-26T14:42:07.984Z,7.20
2018-11-26T14:47:36.633Z,7.20
2018-11-26T14:50:15.352Z,7.10
2018-11-26T14:52:52.117Z,7.10
2018-11-26T14:55:30.540Z,7.10
2018-11-26T14:58:04.534Z,7.10
2018-11-26T15:00:40.878Z,7.10
2018-11-26T15:03:18.611Z,7.00
2018-11-26T15:05:57.616Z,7.00
2018-11-26T15:08:30.951Z,7.00
2018-11-26T15:11:08.394Z,7.00
2018-11-26T15:13:45.888Z,7.00
2018-11-26T15:16:20.335Z,7.00
2018-11-26T15:18:54.534Z,7.00
2018-11-26T15:21:31.550Z,6.90
2018-11-26T15:24:09.171Z,6.90
2018-11-26T15:26:46.796Z,6.90
2018-11-26T15:29:23.408Z,6.90
2018-11-26T15:32:00.793Z,7.10
2018-11-26T15:34:38.705Z,7.00
2018-11-26T15:37:16.401Z,7.00
2018-11-26T15:39:53.108Z,7.00
2018-11-26T15:42:29.695Z,6.90
2018-11-26T15:45:03.616Z,6.90
2018-11-26T15:47:42.388Z,6.90
2018-11-26T15:50:20.234Z,6.80
2018-11-26T15:52:56.540Z,6.80
2018-11-26T15:55:34.686Z,6.80
2018-11-26T15:58:11.318Z,6.80
2018-11-26T16:00:48.231Z,6.80
2018-11-26T16:03:25.799Z,6.70
2018-11-26T16:06:01.958Z,6.70
2018-11-26T16:08:35.860Z,6.70
2018-11-26T16:11:11.373Z,6.70
2018-11-26T16:13:45.751Z,6.60
2018-11-26T16:16:21.980Z,6.60
2018-11-26T16:18:59.100Z,6.60
2018-11-26T16:21:34.702Z,6.60
2018-11-26T16:24:08.895Z,6.60
2018-11-26T16:26:45.648Z,6.60
2018-11-26T16:29:23.204Z,6.60
2018-11-26T16:32:00.904Z,6.50
2018-11-26T16:34:37.657Z,6.50
2018-11-26T16:37:12.987Z,6.50
2018-11-26T16:39:47.691Z,6.50
2018-11-26T16:42:24.580Z,6.50
2018-11-26T16:44:58.807Z,6.50
2018-11-26T16:47:32.327Z,6.50
